createdAt,value
2022-12-18T00:01:22.311Z,48.08
2022-12-18T00:03:49.336Z,46.10
2022-12-18T00:06:16.742Z,45.45
2022-12-18T00:08:44.254Z,44.28
2022-12-18T00:11:16.172Z,45.30
2022-12-18T00:13:43.243Z,40.75
2022-12-18T00:16:13.292Z,46.30
2022-12-18T00:18:40.507Z,44.72
2022-12-18T00:21:09.305Z,47.33
2022-12-18T00:23:37.332Z,51.60
2022-12-18T00:26:11.481Z,55.35
2022-12-18T00:28:38.069Z,52.67
2022-12-18T00:31:06.828Z,50.95
2022-12-18T00:33:33.743Z,51.55
2022-12-18T00:36:15.022Z,50.10
2022-12-18T00:38:41.988Z,47.05
2022-12-18T00:41:11.073Z,59.40
2022-12-18T00:43:38.625Z,64.10
2022-12-18T00:46:05.701Z,68.88
2022-12-18T00:48:32.667Z,71.38
2022-12-18T00:50:59.090Z,66.43
2022-12-18T00:53:25.485Z,36.88
2022-12-18T00:55:51.872Z,26.63
2022-12-18T00:58:19.553Z,63.00
2022-12-18T01:00:46.083Z,64.78
2022-12-18T01:03:15.187Z,72.97
2022-12-18T01:05:42.486Z,66.80
2022-12-18T01:08:09.009Z,63.13
2022-12-18T01:10:35.436Z,60.88
2022-12-18T01:13:01.863Z,49.97
2022-12-18T01:15:28.326Z,43.58
2022-12-18T01:17:54.717Z,31.63
2022-12-18T01:20:21.588Z,31.08
2022-12-18T01:22:48.043Z,29.85
2022-12-18T01:25:14.477Z,49.13
2022-12-18T01:27:40.934Z,45.60
2022-12-18T01:30:07.925Z,45.97
2022-12-18T01:32:34.391Z,43.40
2022-12-18T01:35:00.915Z,44.08
2022-12-18T01:37:27.325Z,37.75
2022-12-18T01:39:55.353Z,46.03
2022-12-18T01:42:22.354Z,51.92
2022-12-18T01:45:03.898Z,43.40
2022-12-18T01:47:46.283Z,48.00
2022-12-18T01:50:17.408Z,51.70
2022-12-18T01:52:46.152Z,51.30
2022-12-18T01:55:13.565Z,55.22
2022-12-18T01:57:40.233Z,54.17
2022-12-18T02:00:13.339Z,53.97
2022-12-18T02:02:41.448Z,50.92
2022-12-18T02:05:08.404Z,50.20
2022-12-18T02:08:02.709Z,51.72
2022-12-18T02:10:32.892Z,48.90
2022-12-18T02:13:20.317Z,49.35
2022-12-18T02:15:52.575Z,49.58
2022-12-18T02:20:51.514Z,50.92
2022-12-18T02:23:48.576Z,49.67
2022-12-18T02:26:31.260Z,51.67
2022-12-18T02:29:01.444Z,62.75
2022-12-18T02:31:30.613Z,53.25
2022-12-18T02:34:01.980Z,58.50
2022-12-18T02:36:29.133Z,52.90
2022-12-18T02:38:56.346Z,56.50
2022-12-18T02:41:22.920Z,53.70
2022-12-18T02:43:50.686Z,59.13
2022-12-18T02:46:44.645Z,59.80
2022-12-18T02:49:20.132Z,61.33
2022-12-18T02:51:54.166Z,60.92
2022-12-18T02:54:57.655Z,52.60
2022-12-18T02:57:25.951Z,54.08
2022-12-18T03:00:00.001Z,53.38
2022-12-18T03:02:47.323Z,60.55
2022-12-18T03:05:34.102Z,53.78
2022-12-18T03:08:06.394Z,54.13
2022-12-18T03:13:10.905Z,54.78
2022-12-18T03:15:46.534Z,52.67
2022-12-18T03:18:19.488Z,49.42
2022-12-18T03:20:48.144Z,52.40
2022-12-18T03:23:17.113Z,43.33
2022-12-18T03:25:45.554Z,37.78
2022-12-18T03:28:15.105Z,32.08
2022-12-18T03:30:42.846Z,28.27
2022-12-18T03:33:13.589Z,25.48
2022-12-18T03:35:43.478Z,26.30
2022-12-18T03:38:10.381Z,23.63
2022-12-18T03:40:55.533Z,27.55
2022-12-18T03:44:00.993Z,28.13
2022-12-18T03:47:29.298Z,24.02
2022-12-18T03:50:17.993Z,23.88
2022-12-18T03:52:52.446Z,22.23
2022-12-18T03:55:20.265Z,26.67
2022-12-18T03:57:47.253Z,28.42
2022-12-18T04:00:15.274Z,28.52
2022-12-18T04:02:53.341Z,25.98
2022-12-18T04:05:22.873Z,28.17
2022-12-18T04:07:50.231Z,28.00
2022-12-18T04:10:17.892Z,34.15
2022-12-18T04:12:44.416Z,31.45
2022-12-18T04:15:11.786Z,34.95
2022-12-18T04:17:38.868Z,35.50
2022-12-18T04:20:05.891Z,30.90
2022-12-18T04:22:32.350Z,31.83
2022-12-18T04:24:58.720Z,32.53
2022-12-18T04:27:25.089Z,29.55
2022-12-18T04:29:51.548Z,28.00
2022-12-18T04:32:18.016Z,29.38
2022-12-18T04:34:44.576Z,29.13
2022-12-18T04:37:11.024Z,27.08
2022-12-18T04:39:37.422Z,26.80
2022-12-18T04:42:03.858Z,27.08
2022-12-18T04:44:30.281Z,23.92
2022-12-18T04:46:56.852Z,24.77
2022-12-18T04:49:23.270Z,25.77
2022-12-18T04:51:49.703Z,22.73
2022-12-18T04:54:16.170Z,22.00
2022-12-18T04:56:42.608Z,26.17
2022-12-18T04:59:09.037Z,23.63
2022-12-18T05:01:35.941Z,25.83
2022-12-18T05:04:03.364Z,24.17
2022-12-18T05:06:30.235Z,24.42
2022-12-18T05:08:56.641Z,25.25
2022-12-18T05:11:23.069Z,19.90
2022-12-18T05:13:49.464Z,25.25
2022-12-18T05:16:16.104Z,20.25
2022-12-18T05:18:42.896Z,21.15
2022-12-18T05:21:09.433Z,22.80
2022-12-18T05:23:36.061Z,20.23
2022-12-18T05:26:05.020Z,22.58
2022-12-18T05:28:33.478Z,20.70
2022-12-18T05:31:01.724Z,22.27
2022-12-18T05:33:30.750Z,24.77
2022-12-18T05:35:59.063Z,26.30
2022-12-18T05:38:27.452Z,28.10
2022-12-18T05:40:54.600Z,23.50
2022-12-18T05:43:22.711Z,25.13
2022-12-18T05:45:49.685Z,21.90
2022-12-18T05:48:16.842Z,22.83
2022-12-18T05:50:44.893Z,26.15
2022-12-18T05:53:11.577Z,25.95
2022-12-18T05:55:39.778Z,24.50
2022-12-18T05:58:08.025Z,23.85
2022-12-18T06:00:36.149Z,25.98
2022-12-18T06:03:02.855Z,26.17
2022-12-18T06:05:29.317Z,28.00
2022-12-18T06:07:55.804Z,27.33
2022-12-18T06:10:22.470Z,25.25
2022-12-18T06:12:48.965Z,28.35
2022-12-18T06:15:15.390Z,29.98
2022-12-18T06:17:43.580Z,28.77
2022-12-18T06:20:11.015Z,26.52
2022-12-18T06:22:37.420Z,24.88
2022-12-18T06:25:04.353Z,24.25
2022-12-18T06:27:30.811Z,26.23
2022-12-18T06:29:57.219Z,25.77
2022-12-18T06:32:23.692Z,23.60
2022-12-18T06:34:50.321Z,25.15
2022-12-18T06:37:16.887Z,27.70
2022-12-18T06:39:43.455Z,25.50
2022-12-18T06:42:09.832Z,28.15
2022-12-18T06:44:36.296Z,24.65
2022-12-18T06:47:02.688Z,27.63
2022-12-18T06:49:30.762Z,27.73
2022-12-18T06:51:57.294Z,22.63
2022-12-18T06:54:23.662Z,30.73
2022-12-18T06:56:50.423Z,30.13
2022-12-18T06:59:17.533Z,26.75
2022-12-18T07:01:44.172Z,29.27
2022-12-18T07:04:10.818Z,31.88
2022-12-18T07:06:37.195Z,29.10
2022-12-18T07:09:03.724Z,32.17
2022-12-18T07:11:30.238Z,35.08
2022-12-18T07:13:56.683Z,44.65
2022-12-18T07:16:25.613Z,53.40
2022-12-18T07:18:53.523Z,63.10
2022-12-18T07:21:22.450Z,53.95
2022-12-18T07:23:49.400Z,49.45
2022-12-18T07:26:18.228Z,48.97
2022-12-18T07:28:44.830Z,38.80
2022-12-18T07:31:14.195Z,32.53
2022-12-18T07:33:41.250Z,27.65
2022-12-18T07:36:09.449Z,24.80
2022-12-18T07:38:36.288Z,24.92
2022-12-18T07:41:08.255Z,25.73
2022-12-18T07:43:35.651Z,28.50
2022-12-18T07:46:02.265Z,21.95
2022-12-18T07:48:29.575Z,25.50
2022-12-18T07:51:03.640Z,25.58
2022-12-18T07:53:30.040Z,27.88
2022-12-18T07:56:26.395Z,24.38
2022-12-18T07:58:52.438Z,25.80
2022-12-18T08:01:18.988Z,27.25
2022-12-18T08:03:45.535Z,22.90
2022-12-18T08:06:11.924Z,21.38
2022-12-18T08:08:38.434Z,25.20
2022-12-18T08:11:04.994Z,24.88
2022-12-18T08:13:31.650Z,24.92
2022-12-18T08:16:01.887Z,23.55
2022-12-18T08:18:28.901Z,22.10
2022-12-18T08:20:55.856Z,22.13
2022-12-18T08:23:22.743Z,25.30
2022-12-18T08:25:49.244Z,21.27
2022-12-18T08:28:15.672Z,19.33
2022-12-18T08:30:43.473Z,23.42
2022-12-18T08:33:09.918Z,22.63
2022-12-18T08:35:42.448Z,22.27
2022-12-18T08:38:11.973Z,20.70
2022-12-18T08:40:38.400Z,19.67
2022-12-18T08:43:23.552Z,20.58
2022-12-18T08:45:50.031Z,20.70
2022-12-18T08:48:21.882Z,20.63
2022-12-18T08:50:58.389Z,17.55
2022-12-18T08:53:25.080Z,22.00
2022-12-18T08:55:51.490Z,19.65
2022-12-18T08:58:17.883Z,21.75
2022-12-18T09:00:44.342Z,21.27
2022-12-18T09:03:18.838Z,20.00
2022-12-18T09:05:46.705Z,22.08
2022-12-18T09:08:13.131Z,18.08
2022-12-18T09:10:47.051Z,19.05
2022-12-18T09:13:13.581Z,17.98
2022-12-18T09:15:46.900Z,20.83
2022-12-18T09:18:14.588Z,18.58
2022-12-18T09:20:41.338Z,18.23
2022-12-18T09:23:08.402Z,16.77
2022-12-18T09:25:36.679Z,20.70
2022-12-18T09:28:07.230Z,15.52
2022-12-18T09:30:36.577Z,15.98
2022-12-18T09:33:03.740Z,15.48
2022-12-18T09:35:31.185Z,15.10
2022-12-18T09:37:57.571Z,16.73
2022-12-18T09:40:27.239Z,15.75
2022-12-18T09:42:58.965Z,17.15
2022-12-18T09:45:25.513Z,15.55
2022-12-18T09:47:53.361Z,15.57
2022-12-18T09:50:31.051Z,16.13
2022-12-18T09:53:05.427Z,13.25
2022-12-18T09:55:37.967Z,12.38
2022-12-18T09:58:29.396Z,12.85
2022-12-18T10:00:56.266Z,12.80
2022-12-18T10:03:23.088Z,14.35
2022-12-18T10:05:52.341Z,12.55
2022-12-18T10:08:35.132Z,14.93
2022-12-18T10:11:31.379Z,12.70
2022-12-18T10:14:19.567Z,13.25
2022-12-18T10:17:00.846Z,10.85
2022-12-18T10:19:54.554Z,10.27
2022-12-18T10:22:30.570Z,12.05
2022-12-18T10:25:06.877Z,10.35
2022-12-18T10:27:33.389Z,10.90
2022-12-18T10:30:01.398Z,11.05
2022-12-18T10:32:29.753Z,8.95
2022-12-18T10:35:00.423Z,12.60
2022-12-18T10:37:29.907Z,11.95
2022-12-18T10:40:21.900Z,11.10
2022-12-18T10:45:25.415Z,10.88
2022-12-18T10:47:51.788Z,10.65
2022-12-18T10:50:47.182Z,14.05
2022-12-18T10:53:21.637Z,10.50
2022-12-18T10:55:48.694Z,10.23
2022-12-18T10:58:27.283Z,10.35
2022-12-18T11:01:15.659Z,10.73
2022-12-18T11:03:43.396Z,9.55
2022-12-18T11:06:18.772Z,16.77
2022-12-18T11:09:01.673Z,12.07
2022-12-18T11:11:28.488Z,10.30
2022-12-18T11:14:05.808Z,12.27
2022-12-18T11:17:03.029Z,9.32
2022-12-18T11:19:35.826Z,9.48
2022-12-18T11:22:05.220Z,10.18
2022-12-18T11:24:34.871Z,10.50
2022-12-18T11:27:17.506Z,10.98
2022-12-18T11:32:16.244Z,9.07
2022-12-18T11:34:50.386Z,10.35
2022-12-18T11:37:21.873Z,12.35
2022-12-18T11:39:57.624Z,10.90
2022-12-18T11:42:29.047Z,10.15
2022-12-18T11:45:02.047Z,10.57
2022-12-18T11:47:50.664Z,11.93
2022-12-18T11:50:19.806Z,12.45
2022-12-18T11:52:48.480Z,13.88
2022-12-18T11:55:21.913Z,13.63
2022-12-18T11:58:18.978Z,13.33
2022-12-18T12:01:15.934Z,10.35
2022-12-18T12:04:13.173Z,12.23
2022-12-18T12:06:52.063Z,11.40
2022-12-18T12:09:30.265Z,8.90
2022-12-18T12:12:02.484Z,11.48
2022-12-18T12:14:54.668Z,11.95
2022-12-18T12:17:36.874Z,10.35
2022-12-18T12:20:13.183Z,11.13
2022-12-18T12:22:49.092Z,10.52
2022-12-18T12:25:27.667Z,13.68
2022-12-18T12:27:56.743Z,10.27
2022-12-18T12:30:32.037Z,11.18
2022-12-18T12:33:09.636Z,12.73
2022-12-18T12:35:48.013Z,11.68
2022-12-18T12:38:20.727Z,12.40
2022-12-18T12:41:02.173Z,13.10
2022-12-18T12:43:47.822Z,12.65
2022-12-18T12:46:19.033Z,10.60
2022-12-18T12:49:00.093Z,8.95
2022-12-18T12:51:33.090Z,9.55
2022-12-18T12:54:00.523Z,9.02
2022-12-18T12:56:38.022Z,11.00
2022-12-18T12:59:15.206Z,10.05
2022-12-18T13:02:06.173Z,9.10
2022-12-18T13:04:47.186Z,11.15
2022-12-18T13:07:18.250Z,9.38
2022-12-18T13:10:26.986Z,10.00
2022-12-18T13:13:08.980Z,10.25
2022-12-18T13:15:49.995Z,11.82
2022-12-18T13:18:18.300Z,10.88
2022-12-18T13:20:58.346Z,9.73
2022-12-18T13:23:34.199Z,11.43
2022-12-18T13:29:07.248Z,12.40
2022-12-18T13:31:39.765Z,10.23
2022-12-18T13:36:56.076Z,8.32
2022-12-18T13:39:35.100Z,10.60
2022-12-18T13:42:08.847Z,11.35
2022-12-18T13:44:40.375Z,10.55
2022-12-18T13:47:36.130Z,9.95
2022-12-18T13:50:28.613Z,10.63
2022-12-18T13:52:58.894Z,8.85
2022-12-18T13:55:25.855Z,8.27
2022-12-18T13:58:04.580Z,10.23
2022-12-18T14:00:31.466Z,10.90
2022-12-18T14:02:59.065Z,11.88
2022-12-18T14:05:26.897Z,9.95
2022-12-18T14:07:54.637Z,10.73
2022-12-18T14:13:11.197Z,10.63
2022-12-18T14:15:47.708Z,13.60
2022-12-18T14:18:30.107Z,9.38
2022-12-18T14:20:58.911Z,11.30
2022-12-18T14:23:39.215Z,8.18
2022-12-18T14:26:28.067Z,10.35
2022-12-18T14:28:55.455Z,10.85
2022-12-18T14:31:27.006Z,9.70
2022-12-18T14:33:54.250Z,9.13
2022-12-18T14:36:28.732Z,10.98
2022-12-18T14:38:57.062Z,10.68
2022-12-18T14:41:23.716Z,11.88
2022-12-18T14:43:51.921Z,13.57
2022-12-18T14:46:33.821Z,12.35
2022-12-18T14:49:04.029Z,11.68
2022-12-18T14:51:32.955Z,13.50
2022-12-18T14:54:04.797Z,9.48
2022-12-18T14:56:33.509Z,11.10
2022-12-18T14:59:02.929Z,10.50
2022-12-18T15:01:32.767Z,9.30
2022-12-18T15:04:00.894Z,10.52
2022-12-18T15:06:37.999Z,11.70
2022-12-18T15:09:07.246Z,12.25
2022-12-18T15:11:46.147Z,10.45
2022-12-18T15:14:35.561Z,11.35
2022-12-18T15:17:03.706Z,10.07
2022-12-18T15:19:35.550Z,10.82
2022-12-18T15:22:06.396Z,14.13
2022-12-18T15:24:33.543Z,10.75
2022-12-18T15:27:00.653Z,10.52
2022-12-18T15:29:27.461Z,13.55
2022-12-18T15:32:04.990Z,12.85
2022-12-18T15:34:32.366Z,12.32
2022-12-18T15:36:58.781Z,12.85
2022-12-18T15:39:25.375Z,11.70
2022-12-18T15:42:10.421Z,11.48
2022-12-18T15:44:37.399Z,12.93
2022-12-18T15:47:03.791Z,12.07
2022-12-18T15:49:30.170Z,13.77
2022-12-18T15:51:59.226Z,14.80
2022-12-18T15:54:44.320Z,14.02
2022-12-18T15:57:23.882Z,14.43
2022-12-18T15:59:52.319Z,12.23
2022-12-18T16:02:19.623Z,12.25
2022-12-18T16:04:46.850Z,13.98
2022-12-18T16:07:15.159Z,13.05
2022-12-18T16:09:45.448Z,14.48
2022-12-18T16:12:20.691Z,12.30
2022-12-18T16:14:47.339Z,13.70
2022-12-18T16:17:14.885Z,14.48
2022-12-18T16:19:44.427Z,14.05
2022-12-18T16:22:21.104Z,13.60
2022-12-18T16:24:47.539Z,14.25
2022-12-18T16:27:13.925Z,15.98
2022-12-18T16:29:40.335Z,13.90
2022-12-18T16:32:06.756Z,15.52
2022-12-18T16:34:36.047Z,14.40
2022-12-18T16:37:06.165Z,13.82
2022-12-18T16:39:35.185Z,15.20
2022-12-18T16:42:07.622Z,17.23
2022-12-18T16:44:34.824Z,15.88
2022-12-18T16:47:03.182Z,14.93
2022-12-18T16:49:29.999Z,14.40
2022-12-18T16:51:56.464Z,18.17
2022-12-18T16:54:22.916Z,15.95
2022-12-18T16:56:51.352Z,16.88
2022-12-18T16:59:17.811Z,17.48
2022-12-18T17:01:44.416Z,16.20
2022-12-18T17:04:11.120Z,15.02
2022-12-18T17:06:42.928Z,15.82
2022-12-18T17:09:13.142Z,16.75
2022-12-18T17:11:39.800Z,17.45
2022-12-18T17:14:08.398Z,17.45
2022-12-18T17:16:35.597Z,15.88
2022-12-18T17:19:02.515Z,16.40
2022-12-18T17:21:29.028Z,17.20
2022-12-18T17:23:55.392Z,16.35
2022-12-18T17:26:21.777Z,18.35
2022-12-18T17:28:48.192Z,17.08
2022-12-18T17:31:17.554Z,19.23
2022-12-18T17:33:44.552Z,19.35
2022-12-18T17:36:12.439Z,15.60
2022-12-18T17:38:38.941Z,19.63
2022-12-18T17:41:07.813Z,18.17
2022-12-18T17:43:39.581Z,17.80
2022-12-18T17:46:06.758Z,19.63
2022-12-18T17:48:34.660Z,17.88
2022-12-18T17:51:05.275Z,18.60
2022-12-18T17:53:31.723Z,18.35
2022-12-18T17:56:02.512Z,17.20
2022-12-18T17:58:29.001Z,16.45
2022-12-18T18:00:55.562Z,20.85
2022-12-18T18:03:22.265Z,15.52
2022-12-18T18:05:48.941Z,18.80
2022-12-18T18:08:15.465Z,19.17
2022-12-18T18:10:41.875Z,19.02
2022-12-18T18:13:43.401Z,20.75
2022-12-18T18:16:13.031Z,19.30
2022-12-18T18:18:39.690Z,20.65
2022-12-18T18:21:06.776Z,18.20
2022-12-18T18:23:34.679Z,19.02
2022-12-18T18:26:06.331Z,18.30
2022-12-18T18:28:33.079Z,23.30
2022-12-18T18:31:05.015Z,19.92
2022-12-18T18:33:32.368Z,22.50
2022-12-18T18:35:58.783Z,19.33
2022-12-18T18:38:25.279Z,20.13
2022-12-18T18:41:04.761Z,21.40
2022-12-18T18:43:31.594Z,21.63
2022-12-18T18:45:59.395Z,21.33
2022-12-18T18:48:26.974Z,22.58
2022-12-18T18:50:57.511Z,21.27
2022-12-18T18:53:23.992Z,23.38
2022-12-18T18:56:16.574Z,22.40
2022-12-18T18:58:36.882Z,23.17
2022-12-18T19:01:06.655Z,22.88
2022-12-18T19:03:33.765Z,21.98
2022-12-18T19:06:00.972Z,21.35
2022-12-18T19:08:29.656Z,20.60
2022-12-18T19:10:58.086Z,25.63
2022-12-18T19:13:26.750Z,24.45
2022-12-18T19:16:11.669Z,22.35
2022-12-18T19:18:38.815Z,21.25
2022-12-18T19:21:06.865Z,25.08
2022-12-18T19:23:33.985Z,23.45
2022-12-18T19:26:26.883Z,25.08
2022-12-18T19:28:48.724Z,25.30
2022-12-18T19:31:22.855Z,24.60
2022-12-18T19:33:51.351Z,26.13
2022-12-18T19:36:23.550Z,27.67
2022-12-18T19:38:51.311Z,26.17
2022-12-18T19:41:19.362Z,25.40
2022-12-18T19:43:46.467Z,24.30
2022-12-18T19:46:15.356Z,26.10
2022-12-18T19:48:42.882Z,27.15
2022-12-18T19:51:22.282Z,26.45
2022-12-18T19:53:52.411Z,27.05
2022-12-18T19:56:25.399Z,28.15
2022-12-18T19:58:52.018Z,27.65
2022-12-18T20:01:20.495Z,27.13
2022-12-18T20:03:52.246Z,30.02
2022-12-18T20:06:30.669Z,30.08
2022-12-18T20:09:00.805Z,32.22
2022-12-18T20:11:28.589Z,32.28
2022-12-18T20:13:54.943Z,27.80
2022-12-18T20:16:21.430Z,30.95
2022-12-18T20:18:48.105Z,30.13
2022-12-18T20:21:14.653Z,30.17
2022-12-18T20:23:41.477Z,30.48
2022-12-18T20:26:08.620Z,29.02
2022-12-18T20:28:35.271Z,29.35
2022-12-18T20:31:03.764Z,28.65
2022-12-18T20:33:30.898Z,29.55
2022-12-18T20:36:06.128Z,30.52
2022-12-18T20:38:34.089Z,31.10
2022-12-18T20:41:02.370Z,30.48
2022-12-18T20:43:29.643Z,31.70
2022-12-18T20:46:04.557Z,30.08
2022-12-18T20:48:31.078Z,33.65
2022-12-18T20:51:04.027Z,32.35
2022-12-18T20:53:31.155Z,34.20
2022-12-18T20:55:57.698Z,26.85
2022-12-18T20:58:24.773Z,32.60
2022-12-18T21:01:02.067Z,28.88
2022-12-18T21:03:28.629Z,29.88
2022-12-18T21:05:55.075Z,32.67
2022-12-18T21:08:21.438Z,29.15
2022-12-18T21:10:47.833Z,32.60
2022-12-18T21:13:14.480Z,32.13
2022-12-18T21:15:42.103Z,31.08
2022-12-18T21:18:08.531Z,33.72
2022-12-18T21:20:35.044Z,31.10
2022-12-18T21:23:11.997Z,33.78
2022-12-18T21:25:43.253Z,28.73
2022-12-18T21:28:09.601Z,31.17
2022-12-18T21:30:36.064Z,34.42
2022-12-18T21:33:02.499Z,37.78
2022-12-18T21:35:29.787Z,34.97
2022-12-18T21:37:58.460Z,35.75
2022-12-18T21:40:24.969Z,37.67
2022-12-18T21:43:09.961Z,35.40
2022-12-18T21:45:37.590Z,39.25
2022-12-18T21:48:04.123Z,36.92
2022-12-18T21:50:33.257Z,37.50
2022-12-18T21:52:59.731Z,36.53
2022-12-18T21:55:26.189Z,37.70
2022-12-18T21:57:53.858Z,35.65
2022-12-18T22:00:20.283Z,35.85
2022-12-18T22:02:47.850Z,37.13
2022-12-18T22:05:14.600Z,34.38
2022-12-18T22:07:41.266Z,38.58
2022-12-18T22:10:08.026Z,36.38
2022-12-18T22:12:44.008Z,38.08
2022-12-18T22:15:12.797Z,36.63
2022-12-18T22:17:46.419Z,34.55
2022-12-18T22:20:12.810Z,39.17
2022-12-18T22:22:39.196Z,39.22
2022-12-18T22:25:05.792Z,37.50
2022-12-18T22:27:32.156Z,37.20
2022-12-18T22:30:04.527Z,37.70
2022-12-18T22:32:32.826Z,35.97
2022-12-18T22:35:09.197Z,37.03
2022-12-18T22:37:39.266Z,39.00
2022-12-18T22:40:06.254Z,40.42
2022-12-18T22:42:34.101Z,39.35
2022-12-18T22:45:00.631Z,36.85
2022-12-18T22:47:29.992Z,41.28
2022-12-18T22:49:57.238Z,34.30
2022-12-18T22:52:24.802Z,40.58
2022-12-18T22:54:51.623Z,38.10
2022-12-18T22:57:20.407Z,37.00
2022-12-18T22:59:46.770Z,36.88
2022-12-18T23:02:13.486Z,36.10
2022-12-18T23:04:40.025Z,36.47
2022-12-18T23:07:06.629Z,38.92
2022-12-18T23:09:33.331Z,36.85
2022-12-18T23:12:00.255Z,37.55
2022-12-18T23:14:27.780Z,39.28
2022-12-18T23:16:54.216Z,36.35
2022-12-18T23:19:21.437Z,36.30
2022-12-18T23:21:50.036Z,38.10
2022-12-18T23:24:16.429Z,37.53
2022-12-18T23:26:43.067Z,36.78
2022-12-18T23:29:09.721Z,35.42
2022-12-18T23:31:38.391Z,38.80
2022-12-18T23:34:05.945Z,41.33
2022-12-18T23:36:40.283Z,41.47
2022-12-18T23:39:24.372Z,38.25
2022-12-18T23:41:59.395Z,39.95
2022-12-18T23:44:25.873Z,44.28
2022-12-18T23:46:52.689Z,40.03
2022-12-18T23:49:19.126Z,42.17
2022-12-18T23:51:45.529Z,39.65
2022-12-18T23:54:12.122Z,40.85
2022-12-18T23:56:38.539Z,41.60
2022-12-18T23:59:04.906Z,41.78
